Time;durP1;ratioP1;P1;durP2;ratioP2;P2;SDS_P1;SDS_P2;PMS_P1;PMS_P2;Temp;Humidity;BMP_temperature;BMP_pressure;BME280_temperature;BME280_humidity;BME280_pressure;Samples;Min_cycle;Max_cycle;Signal;HPM_P1;HPM_P2
2023/05/20 00:00:27;;;;;;;5.32;2.80;;;14.00;93.60;;;;;;5081417;28;20020;-41
2023/05/20 00:02:52;;;;;;;4.65;2.67;;;13.90;93.70;;;;;;5081535;28;20038;-43
2023/05/20 00:05:18;;;;;;;6.55;2.90;;;13.90;94.10;;;;;;5080177;28;21084;-41
2023/05/20 00:07:43;;;;;;;9.10;3.08;;;13.80;94.20;;;;;;5081756;28;20024;-42
2023/05/20 00:10:09;;;;;;;6.68;2.80;;;13.80;94.70;;;;;;5081944;28;20424;-42
2023/05/20 00:12:41;;;;;;;4.75;2.50;;;13.80;94.30;;;;;;5080741;28;20028;-40
2023/05/20 00:15:19;;;;;;;6.25;2.60;;;13.80;94.30;;;;;;5082308;28;20028;-42
2023/05/20 00:17:44;;;;;;;4.60;2.28;;;13.80;94.30;;;;;;5081713;28;20030;-43
2023/05/20 00:20:10;;;;;;;6.45;2.75;;;13.80;94.30;;;;;;5081512;28;20028;-42
2023/05/20 00:22:36;;;;;;;5.25;2.85;;;13.80;94.60;;;;;;5081444;28;20030;-43
2023/05/20 00:25:01;;;;;;;5.38;2.70;;;13.80;94.70;;;;;;5082424;28;20039;-42
2023/05/20 00:27:27;;;;;;;9.40;2.90;;;13.70;95.00;;;;;;5081022;28;20032;-42
2023/05/20 00:29:52;;;;;;;5.70;3.08;;;13.80;95.10;;;;;;5083147;28;20061;-43
2023/05/20 00:32:18;;;;;;;5.88;3.20;;;13.70;95.10;;;;;;5082177;28;20127;-41
2023/05/20 00:34:43;;;;;;;4.55;3.05;;;13.70;95.30;;;;;;5081335;28;20032;-43
2023/05/20 00:37:10;;;;;;;6.88;2.90;;;13.70;95.50;;;;;;5082121;28;20024;-42
2023/05/20 00:39:38;;;;;;;6.45;3.90;;;13.70;95.50;;;;;;5081277;28;20032;-41
2023/05/20 00:42:04;;;;;;;4.70;3.15;;;13.70;95.70;;;;;;5081000;28;20031;-42
2023/05/20 00:44:35;;;;;;;5.22;2.78;;;13.70;95.90;;;;;;5082436;28;20043;-42
2023/05/20 00:47:01;;;;;;;4.88;2.90;;;13.70;95.90;;;;;;5081443;28;20024;-41
2023/05/20 00:49:26;;;;;;;5.57;2.80;;;13.70;96.00;;;;;;5081559;28;20093;-40
2023/05/20 00:51:52;;;;;;;7.63;2.67;;;13.70;96.00;;;;;;5081564;28;20023;-42
2023/05/20 00:54:18;;;;;;;6.63;3.05;;;13.70;96.10;;;;;;5080645;28;20035;-43
2023/05/20 00:56:43;;;;;;;4.32;2.40;;;13.70;96.20;;;;;;5081716;28;20168;-42
2023/05/20 00:59:10;;;;;;;7.18;3.13;;;13.70;96.30;;;;;;5082601;28;20476;-42
2023/05/20 01:01:39;;;;;;;5.88;2.80;;;13.70;96.30;;;;;;5080858;28;20107;-42
2023/05/20 01:04:04;;;;;;;4.15;2.80;;;13.70;96.50;;;;;;5081497;28;20668;-43
2023/05/20 01:06:30;;;;;;;6.55;3.63;;;13.70;96.80;;;;;;5080896;28;20078;-42
2023/05/20 01:08:55;;;;;;;4.20;2.70;;;13.60;96.80;;;;;;5080497;28;20111;-43
2023/05/20 01:11:27;;;;;;;3.42;2.40;;;13.60;97.10;;;;;;5081304;28;20082;-42
2023/05/20 01:13:56;;;;;;;7.07;3.10;;;13.60;96.90;;;;;;5078061;28;20023;-42
2023/05/20 01:16:23;;;;;;;4.63;3.00;;;13.60;97.30;;;;;;5079228;28;20816;-43
2023/05/20 01:18:54;;;;;;;3.55;2.90;;;13.50;97.30;;;;;;5079264;28;20020;-42
2023/05/20 01:21:20;;;;;;;6.10;3.20;;;13.50;97.40;;;;;;5080577;28;20032;-43
2023/05/20 01:23:47;;;;;;;6.20;3.25;;;13.50;97.80;;;;;;5079843;28;20028;-41
2023/05/20 01:26:12;;;;;;;6.43;3.22;;;13.40;97.80;;;;;;5082784;28;20465;-42
2023/05/20 01:28:44;;;;;;;8.02;3.33;;;13.40;97.90;;;;;;5080824;28;20059;-41
2023/05/20 01:31:19;;;;;;;4.55;3.15;;;13.40;98.20;;;;;;5063037;28;20033;-43
2023/05/20 01:33:50;;;;;;;5.72;2.70;;;13.40;98.20;;;;;;5081296;28;20044;-43
2023/05/20 01:36:17;;;;;;;5.40;3.10;;;13.40;98.30;;;;;;5084051;28;20036;-42
2023/05/20 01:38:42;;;;;;;7.13;2.78;;;13.40;98.40;;;;;;5084075;28;20063;-42
2023/05/20 01:41:10;;;;;;;6.35;2.65;;;13.40;98.40;;;;;;5084493;28;20066;-42
2023/05/20 01:43:37;;;;;;;6.68;3.63;;;13.50;98.50;;;;;;5083111;28;20012;-42
2023/05/20 01:46:05;;;;;;;4.32;2.65;;;13.50;98.70;;;;;;5084844;28;20028;-43
2023/05/20 01:48:31;;;;;;;5.07;2.67;;;13.50;98.70;;;;;;5083620;28;20032;-41
2023/05/20 01:50:56;;;;;;;4.85;2.67;;;13.50;98.80;;;;;;5084356;28;20024;-43
2023/05/20 01:53:22;;;;;;;5.50;3.15;;;13.50;98.90;;;;;;5084682;28;20437;-43
2023/05/20 01:55:47;;;;;;;7.22;2.78;;;13.50;99.00;;;;;;5084275;28;20204;-43
2023/05/20 01:58:13;;;;;;;6.68;3.05;;;13.50;99.10;;;;;;5083401;28;20028;-44
2023/05/20 02:00:38;;;;;;;6.95;3.38;;;13.50;99.10;;;;;;5084448;28;20062;-41
2023/05/20 02:03:04;;;;;;;4.80;2.70;;;13.50;99.20;;;;;;5084281;28;20116;-42
2023/05/20 02:05:29;;;;;;;4.03;2.55;;;13.50;99.20;;;;;;5083457;28;20055;-41
2023/05/20 02:07:55;;;;;;;4.15;2.17;;;13.50;99.10;;;;;;5084709;28;20028;-41
2023/05/20 02:10:20;;;;;;;4.93;3.08;;;13.50;99.20;;;;;;5084101;28;20036;-42
2023/05/20 02:12:52;;;;;;;7.53;3.05;;;13.50;99.40;;;;;;5084124;28;20101;-43
2023/05/20 02:15:21;;;;;;;4.50;2.35;;;13.50;99.50;;;;;;5083843;28;20092;-41
2023/05/20 02:17:49;;;;;;;4.95;3.00;;;13.50;99.50;;;;;;5084367;28;20021;-41
2023/05/20 02:20:15;;;;;;;3.53;2.47;;;13.40;99.60;;;;;;5083750;28;20549;-42
2023/05/20 02:22:40;;;;;;;5.32;2.20;;;13.40;99.60;;;;;;5083055;28;20020;-43
2023/05/20 02:25:07;;;;;;;4.47;2.83;;;13.50;99.70;;;;;;5082917;28;20431;-42
2023/05/20 02:27:32;;;;;;;6.65;3.10;;;13.50;99.80;;;;;;5082233;28;20036;-42
2023/05/20 02:29:59;;;;;;;4.93;2.65;;;13.50;99.90;;;;;;5083368;28;20092;-41
2023/05/20 02:32:28;;;;;;;4.18;2.72;;;13.50;99.90;;;;;;5083313;28;20032;-40
2023/05/20 02:34:54;;;;;;;5.25;2.90;;;13.40;99.90;;;;;;5083750;28;20024;-42
2023/05/20 02:37:20;;;;;;;5.55;2.72;;;13.40;99.90;;;;;;5083270;28;20046;-42
2023/05/20 02:39:48;;;;;;;3.97;2.80;;;13.40;99.90;;;;;;5082608;28;20028;-43
2023/05/20 02:42:14;;;;;;;5.57;3.28;;;13.40;99.90;;;;;;5083701;28;20035;-42
2023/05/20 02:44:40;;;;;;;4.50;2.90;;;13.40;99.90;;;;;;5082298;28;20039;-43
2023/05/20 02:47:09;;;;;;;6.13;3.30;;;13.40;99.90;;;;;;5082736;28;20027;-41
2023/05/20 02:49:35;;;;;;;5.57;2.95;;;13.30;99.90;;;;;;5083354;28;20105;-43
2023/05/20 02:52:00;;;;;;;4.43;2.85;;;13.40;99.90;;;;;;5083152;28;20406;-42
2023/05/20 02:54:26;;;;;;;4.40;2.45;;;13.30;99.90;;;;;;5082185;28;20065;-41
2023/05/20 02:56:51;;;;;;;4.38;2.70;;;13.30;99.90;;;;;;5083636;28;20028;-42
2023/05/20 02:59:17;;;;;;;4.90;3.15;;;13.30;99.90;;;;;;5083372;28;20032;-41
2023/05/20 03:01:43;;;;;;;6.00;2.90;;;13.20;99.90;;;;;;5082696;28;20082;-42
2023/05/20 03:04:08;;;;;;;4.03;2.67;;;13.20;99.90;;;;;;5084118;28;20093;-43
2023/05/20 03:06:34;;;;;;;7.28;2.70;;;13.20;99.90;;;;;;5081970;28;20028;-42
2023/05/20 03:09:00;;;;;;;6.68;3.25;;;13.20;99.90;;;;;;5082431;28;20036;-41
2023/05/20 03:11:25;;;;;;;5.13;2.90;;;13.10;99.90;;;;;;5082634;28;20024;-41
2023/05/20 03:13:51;;;;;;;7.72;2.97;;;13.10;99.90;;;;;;5083220;28;20031;-42
2023/05/20 03:16:17;;;;;;;4.32;2.60;;;13.10;99.90;;;;;;5081938;28;20024;-42
2023/05/20 03:18:43;;;;;;;3.97;2.70;;;13.00;99.90;;;;;;5082715;28;20509;-42
2023/05/20 03:21:08;;;;;;;6.38;2.90;;;13.00;99.90;;;;;;5082947;28;20027;-40
2023/05/20 03:23:34;;;;;;;6.43;2.67;;;13.00;99.90;;;;;;5081663;28;20067;-41
2023/05/20 03:26:02;;;;;;;3.67;2.55;;;13.00;99.90;;;;;;5082403;28;20115;-44
2023/05/20 03:28:28;;;;;;;4.78;2.95;;;13.00;99.90;;;;;;5083215;28;20050;-40
2023/05/20 03:30:53;;;;;;;5.53;2.80;;;12.90;99.90;;;;;;5082347;28;20571;-42
2023/05/20 03:33:19;;;;;;;5.00;3.28;;;12.90;99.90;;;;;;5081613;28;20735;-42
2023/05/20 03:35:45;;;;;;;6.68;3.17;;;12.90;99.90;;;;;;5081689;28;20110;-43
2023/05/20 03:38:11;;;;;;;3.70;2.38;;;12.80;99.90;;;;;;5081760;28;20034;-42
2023/05/20 03:40:36;;;;;;;5.38;3.10;;;12.90;99.90;;;;;;5082114;28;20034;-42
2023/05/20 03:43:02;;;;;;;3.83;2.47;;;12.80;99.90;;;;;;5081578;28;20074;-42
2023/05/20 03:45:27;;;;;;;4.20;2.65;;;12.80;99.90;;;;;;5081804;28;20027;-43
2023/05/20 03:47:56;;;;;;;4.57;2.88;;;12.80;99.90;;;;;;5082450;28;20020;-41
2023/05/20 03:50:21;;;;;;;5.03;3.67;;;12.80;99.90;;;;;;5082181;28;20038;-41
2023/05/20 03:52:47;;;;;;;5.28;2.90;;;12.70;99.90;;;;;;5082696;28;20024;-42
2023/05/20 03:55:13;;;;;;;6.57;2.80;;;12.70;99.90;;;;;;5081877;28;20488;-40
2023/05/20 03:57:39;;;;;;;5.00;3.17;;;12.70;99.90;;;;;;5081640;28;20089;-42
2023/05/20 04:00:13;;;;;;;6.15;2.88;;;12.70;99.90;;;;;;5082105;28;20201;-40
2023/05/20 04:02:39;;;;;;;4.80;2.97;;;12.70;99.90;;;;;;5081670;28;20529;-42
2023/05/20 04:05:07;;;;;;;5.07;2.70;;;12.70;99.90;;;;;;5081938;28;20027;-42
2023/05/20 04:07:33;;;;;;;5.22;2.70;;;12.70;99.90;;;;;;5083061;28;20074;-41
2023/05/20 04:09:58;;;;;;;4.03;2.72;;;12.70;99.90;;;;;;5083158;28;20028;-42
2023/05/20 04:12:29;;;;;;;3.72;2.47;;;12.70;99.90;;;;;;5081520;28;20027;-42
2023/05/20 04:15:00;;;;;;;4.05;3.10;;;12.60;99.90;;;;;;5079081;28;20365;-42
2023/05/20 04:17:29;;;;;;;3.58;2.78;;;12.60;99.90;;;;;;5082057;28;20032;-42
2023/05/20 04:19:58;;;;;;;5.50;3.25;;;12.60;99.90;;;;;;5081358;28;20100;-42
2023/05/20 04:22:25;;;;;;;8.10;2.95;;;12.60;99.90;;;;;;5082049;28;20024;-42
2023/05/20 04:24:50;;;;;;;4.50;2.50;;;12.60;99.90;;;;;;5082166;28;20432;-42
2023/05/20 04:27:16;;;;;;;3.97;2.67;;;12.50;99.90;;;;;;5081685;28;20020;-41
2023/05/20 04:29:44;;;;;;;4.93;2.95;;;12.50;99.90;;;;;;5081945;28;20028;-42
2023/05/20 04:32:17;;;;;;;4.18;2.50;;;12.50;99.90;;;;;;5061851;28;20024;-41
2023/05/20 04:34:43;;;;;;;;;;;12.60;99.90;;;;;;5077263;28;20059;-42
2023/05/20 04:37:09;;;;;;;5.05;2.67;;;12.50;99.90;;;;;;5082128;28;20325;-42
2023/05/20 04:39:35;;;;;;;4.10;2.80;;;12.50;99.90;;;;;;5079938;28;20475;-43
2023/05/20 04:42:02;;;;;;;4.38;2.55;;;12.50;99.90;;;;;;5081090;28;20039;-41
2023/05/20 04:44:28;;;;;;;5.95;3.20;;;12.50;99.90;;;;;;5080338;28;20028;-42
2023/05/20 04:46:55;;;;;;;4.55;2.83;;;12.60;99.90;;;;;;5080662;28;20127;-43
2023/05/20 04:49:20;;;;;;;4.80;2.63;;;12.60;99.90;;;;;;5080960;28;20391;-40
2023/05/20 04:51:48;;;;;;;5.20;2.95;;;12.60;99.90;;;;;;5081120;28;20016;-41
2023/05/20 04:54:16;;;;;;;4.60;2.63;;;12.60;99.90;;;;;;5080775;28;20032;-43
2023/05/20 04:56:43;;;;;;;3.60;2.55;;;12.60;99.90;;;;;;5070932;28;20102;-41
2023/05/20 04:59:09;;;;;;;3.53;2.60;;;12.60;99.90;;;;;;5082320;28;20081;-42
2023/05/20 05:01:38;;;;;;;6.13;2.95;;;12.60;99.90;;;;;;5081426;28;20020;-42
2023/05/20 05:04:03;;;;;;;4.53;2.90;;;12.70;99.90;;;;;;5081879;28;20032;-42
2023/05/20 05:06:29;;;;;;;5.38;3.42;;;12.70;99.90;;;;;;5085175;28;20026;-40
2023/05/20 05:08:55;;;;;;;4.28;3.28;;;12.70;99.90;;;;;;5084421;28;20027;-41
2023/05/20 05:11:21;;;;;;;5.47;2.97;;;12.70;99.90;;;;;;5085311;28;20028;-43
2023/05/20 05:13:46;;;;;;;6.53;3.38;;;12.70;99.90;;;;;;5085594;28;20191;-41
2023/05/20 05:16:12;;;;;;;4.05;2.42;;;12.70;99.90;;;;;;5085192;28;20108;-41
2023/05/20 05:18:37;;;;;;;4.25;2.63;;;12.70;99.90;;;;;;5085577;28;20074;-41
2023/05/20 05:21:05;;;;;;;4.20;2.72;;;12.80;99.90;;;;;;5085495;28;20024;-41
2023/05/20 05:23:31;;;;;;;3.15;2.85;;;12.80;99.90;;;;;;5084144;28;20027;-42
2023/05/20 05:25:57;;;;;;;2.88;2.20;;;12.90;99.90;;;;;;5085252;28;20146;-42
2023/05/20 05:28:23;;;;;;;3.15;2.50;;;12.90;99.90;;;;;;5084357;28;20030;-41
2023/05/20 05:30:49;;;;;;;4.32;2.78;;;12.90;99.90;;;;;;5085652;28;20536;-41
2023/05/20 05:33:14;;;;;;;3.15;2.45;;;13.00;99.90;;;;;;5085220;28;20122;-42
2023/05/20 05:35:41;;;;;;;2.50;2.30;;;13.00;99.90;;;;;;5083305;28;20012;-43
2023/05/20 05:38:10;;;;;;;3.03;2.55;;;13.10;99.90;;;;;;5085735;28;20101;-42
2023/05/20 05:40:39;;;;;;;5.03;2.53;;;13.10;99.90;;;;;;5084461;28;20062;-43
2023/05/20 05:43:05;;;;;;;3.95;2.40;;;13.10;99.90;;;;;;5084486;28;20069;-42
2023/05/20 05:45:30;;;;;;;3.70;2.80;;;13.20;99.90;;;;;;5084484;28;20039;-41
2023/05/20 05:47:56;;;;;;;4.65;2.88;;;13.20;99.90;;;;;;5084602;28;20020;-41
2023/05/20 05:50:22;;;;;;;2.70;2.28;;;13.30;99.90;;;;;;5082649;28;20039;-41
2023/05/20 05:52:47;;;;;;;2.83;2.33;;;13.30;99.90;;;;;;5083792;28;20028;-42
2023/05/20 05:55:13;;;;;;;3.80;2.90;;;13.40;99.90;;;;;;5083402;28;20059;-42
2023/05/20 05:57:38;;;;;;;3.63;2.70;;;13.40;99.90;;;;;;5082581;28;20016;-41
2023/05/20 06:00:04;;;;;;;4.43;2.80;;;13.50;99.90;;;;;;5084281;28;20032;-41
2023/05/20 06:02:34;;;;;;;3.03;2.30;;;13.50;99.90;;;;;;5083493;28;20032;-42
2023/05/20 06:05:04;;;;;;;3.47;2.33;;;13.60;99.90;;;;;;5083265;28;20543;-42
2023/05/20 06:07:29;;;;;;;3.80;2.63;;;13.60;99.90;;;;;;5084361;28;20016;-41
2023/05/20 06:09:58;;;;;;;3.47;2.20;;;13.70;99.90;;;;;;5084634;28;20748;-41
2023/05/20 06:12:23;;;;;;;4.95;2.33;;;13.70;99.90;;;;;;5082320;28;20784;-42
2023/05/20 06:14:49;;;;;;;2.97;2.10;;;13.80;99.90;;;;;;5084314;28;20032;-43
2023/05/20 06:17:14;;;;;;;3.92;2.28;;;13.90;99.90;;;;;;5082514;28;20095;-41
2023/05/20 06:19:40;;;;;;;3.17;2.13;;;13.90;99.90;;;;;;5083175;28;20380;-42
2023/05/20 06:22:08;;;;;;;3.15;2.22;;;14.00;99.90;;;;;;5084840;28;20566;-42
2023/05/20 06:24:34;;;;;;;2.75;2.10;;;14.00;99.90;;;;;;5083518;28;20024;-43
2023/05/20 06:27:00;;;;;;;3.67;2.17;;;14.10;99.90;;;;;;5083858;28;20696;-42
2023/05/20 06:29:28;;;;;;;4.60;2.80;;;14.10;99.90;;;;;;5083834;28;20039;-43
2023/05/20 06:31:57;;;;;;;3.15;2.33;;;14.10;99.90;;;;;;5083286;28;20024;-42
2023/05/20 06:34:32;;;;;;;2.65;2.30;;;14.20;99.90;;;;;;5082780;28;20105;-42
2023/05/20 06:36:58;;;;;;;3.75;2.30;;;14.30;99.90;;;;;;5084821;28;20028;-42
2023/05/20 06:39:23;;;;;;;2.33;2.13;;;14.30;99.90;;;;;;5083533;28;20039;-42
2023/05/20 06:41:50;;;;;;;2.75;2.00;;;14.40;99.90;;;;;;5084264;28;20040;-43
2023/05/20 06:44:16;;;;;;;2.22;1.90;;;14.40;99.90;;;;;;5083361;28;20064;-41
2023/05/20 06:46:42;;;;;;;1.92;1.73;;;14.50;99.90;;;;;;5083371;28;20864;-42
2023/05/20 06:49:07;;;;;;;2.63;1.73;;;14.50;99.90;;;;;;5083782;28;20028;-42
2023/05/20 06:51:35;;;;;;;3.55;2.22;;;14.60;99.90;;;;;;5083133;28;20077;-41
2023/05/20 06:54:01;;;;;;;2.55;2.08;;;14.60;99.90;;;;;;5082393;28;20034;-43
2023/05/20 06:56:27;;;;;;;2.65;2.20;;;14.70;99.90;;;;;;5079641;28;20154;-41
2023/05/20 06:58:53;;;;;;;3.97;1.90;;;14.80;99.90;;;;;;5081691;28;20104;-42
2023/05/20 07:01:19;;;;;;;2.15;1.85;;;14.90;99.90;;;;;;5080878;28;20024;-42
2023/05/20 07:03:45;;;;;;;2.63;1.70;;;14.90;99.90;;;;;;5081828;28;20129;-43
2023/05/20 07:06:10;;;;;;;2.17;1.67;;;15.00;99.90;;;;;;5081897;28;20019;-42
2023/05/20 07:08:36;;;;;;;3.08;1.73;;;15.10;99.90;;;;;;5080826;28;20198;-42
2023/05/20 07:11:01;;;;;;;2.03;1.80;;;15.20;99.90;;;;;;5082457;28;20021;-42
2023/05/20 07:13:27;;;;;;;2.08;1.88;;;15.20;99.90;;;;;;5082155;28;20081;-42
2023/05/20 07:15:55;;;;;;;3.28;2.20;;;15.30;99.90;;;;;;5078139;28;20024;-43
2023/05/20 07:18:21;;;;;;;2.30;1.75;;;15.30;99.90;;;;;;5082884;28;20020;-42
2023/05/20 07:20:47;;;;;;;4.03;1.63;;;15.40;99.90;;;;;;5081469;28;20703;-43
2023/05/20 07:23:13;;;;;;;2.33;1.80;;;15.40;99.90;;;;;;5081087;28;20024;-42
2023/05/20 07:25:39;;;;;;;1.90;1.70;;;15.50;99.90;;;;;;5080314;28;20549;-42
2023/05/20 07:28:05;;;;;;;2.55;1.90;;;15.60;99.90;;;;;;5081179;28;20020;-43
2023/05/20 07:30:30;;;;;;;2.85;1.83;;;15.70;99.90;;;;;;5080896;28;20345;-40
2023/05/20 07:32:56;;;;;;;2.47;2.00;;;15.80;99.90;;;;;;5082514;28;20089;-44
2023/05/20 07:35:23;;;;;;;3.45;2.15;;;15.80;99.90;;;;;;5081371;28;20234;-43
2023/05/20 07:37:48;;;;;;;2.13;1.70;;;15.90;99.90;;;;;;5081900;28;20028;-43
2023/05/20 07:40:14;;;;;;;2.55;1.60;;;16.00;99.90;;;;;;5082242;28;20027;-42
2023/05/20 07:42:40;;;;;;;3.05;2.03;;;16.00;99.90;;;;;;5081836;28;20390;-41
2023/05/20 07:45:06;;;;;;;2.00;1.80;;;16.00;99.90;;;;;;5082094;28;20485;-41
2023/05/20 07:47:31;;;;;;;3.05;2.10;;;16.10;99.90;;;;;;5082075;28;20078;-39
2023/05/20 07:49:57;;;;;;;3.53;2.28;;;16.20;99.90;;;;;;5081082;28;20431;-42
2023/05/20 07:52:23;;;;;;;1.90;1.80;;;16.20;99.90;;;;;;5081284;28;20074;-43
2023/05/20 07:54:48;;;;;;;2.38;1.88;;;16.30;99.90;;;;;;5081565;28;20388;-42
2023/05/20 07:57:14;;;;;;;4.82;2.20;;;16.30;99.90;;;;;;5082079;28;20024;-43
2023/05/20 07:59:40;;;;;;;2.72;2.17;;;16.30;99.80;;;;;;5081567;28;20026;-42
2023/05/20 08:02:05;;;;;;;2.95;2.08;;;16.40;99.60;;;;;;5081629;28;20042;-42
2023/05/20 08:04:31;;;;;;;2.67;1.65;;;16.50;99.50;;;;;;5081078;28;20032;-42
2023/05/20 08:06:56;;;;;;;2.53;2.03;;;16.50;99.30;;;;;;5080861;28;20127;-41
2023/05/20 08:09:22;;;;;;;2.08;1.88;;;16.50;98.90;;;;;;5081392;28;20028;-39
2023/05/20 08:11:48;;;;;;;2.72;2.20;;;16.50;98.60;;;;;;5080688;28;20060;-42
2023/05/20 08:14:13;;;;;;;2.40;2.00;;;16.60;98.50;;;;;;5081692;28;20031;-43
2023/05/20 08:16:39;;;;;;;2.95;2.47;;;16.60;98.50;;;;;;5080792;28;20035;-42
2023/05/20 08:19:04;;;;;;;3.25;2.03;;;16.70;98.30;;;;;;5081404;28;20024;-43
2023/05/20 08:21:30;;;;;;;3.17;1.80;;;16.70;98.20;;;;;;5081703;28;20433;-42
2023/05/20 08:23:59;;;;;;;2.35;1.88;;;16.70;98.40;;;;;;5082031;28;20109;-42
2023/05/20 08:26:25;;;;;;;5.20;2.20;;;16.80;98.10;;;;;;5081612;28;20035;-42
2023/05/20 08:28:51;;;;;;;2.00;1.77;;;16.80;97.70;;;;;;5082485;28;20098;-43
2023/05/20 08:31:17;;;;;;;3.30;1.80;;;16.80;97.60;;;;;;5080852;28;20464;-42
2023/05/20 08:33:43;;;;;;;2.45;2.10;;;16.80;97.30;;;;;;5080976;28;20035;-44
2023/05/20 08:36:08;;;;;;;2.38;1.90;;;16.90;97.10;;;;;;5080755;28;20509;-43
2023/05/20 08:38:35;;;;;;;2.72;1.90;;;16.90;97.00;;;;;;5080632;28;20028;-43
2023/05/20 08:41:00;;;;;;;1.85;1.63;;;17.00;97.00;;;;;;5085679;28;20024;-42
2023/05/20 08:43:26;;;;;;;1.70;1.60;;;17.00;97.00;;;;;;5085466;28;20031;-41
2023/05/20 08:45:52;;;;;;;1.67;1.50;;;17.00;96.90;;;;;;5085600;28;20115;-40
2023/05/20 08:48:18;;;;;;;2.78;2.00;;;17.10;96.90;;;;;;5085141;28;20190;-42
2023/05/20 08:50:50;;;;;;;3.25;2.10;;;17.10;96.50;;;;;;5085459;28;20024;-42
2023/05/20 08:53:17;;;;;;;3.13;2.20;;;17.20;96.10;;;;;;5074682;28;20359;-42
2023/05/20 08:55:46;;;;;;;2.97;2.00;;;17.20;96.00;;;;;;5072747;28;21023;-43
2023/05/20 08:58:11;;;;;;;3.22;1.60;;;17.20;95.80;;;;;;5075693;28;20609;-43
2023/05/20 09:00:37;;;;;;;3.13;1.70;;;17.20;95.70;;;;;;5083577;28;20028;-42
2023/05/20 09:03:04;;;;;;;2.78;1.50;;;17.30;95.70;;;;;;5085607;28;20020;-42
2023/05/20 09:05:30;;;;;;;2.85;1.60;;;17.30;95.70;;;;;;5085217;28;20047;-42
2023/05/20 09:08:11;;;;;;;2.40;1.80;;;17.40;95.50;;;;;;5085118;28;20542;-43
2023/05/20 09:10:38;;;;;;;1.92;1.70;;;17.50;95.50;;;;;;5084428;28;20480;-42
2023/05/20 09:13:05;;;;;;;2.47;1.65;;;17.50;95.40;;;;;;5086152;28;20047;-42
2023/05/20 09:15:35;;;;;;;2.78;1.40;;;17.50;95.10;;;;;;5083812;28;20023;-41
2023/05/20 09:18:06;;;;;;;2.08;1.45;;;17.60;94.90;;;;;;5086067;28;20031;-42
2023/05/20 09:20:36;;;;;;;1.85;1.55;;;17.60;94.90;;;;;;5073790;28;20411;-43
2023/05/20 09:23:03;;;;;;;2.13;1.48;;;17.60;94.60;;;;;;5083200;28;20019;-43
2023/05/20 09:25:32;;;;;;;2.15;1.30;;;17.70;94.60;;;;;;5084975;28;20028;-42
2023/05/20 09:27:58;;;;;;;2.03;1.52;;;17.70;94.20;;;;;;5084553;28;20024;-41
2023/05/20 09:30:24;;;;;;;3.35;1.90;;;17.80;93.90;;;;;;5084339;28;20356;-43
2023/05/20 09:32:57;;;;;;;1.88;1.42;;;17.80;93.90;;;;;;5084313;28;20038;-43
2023/05/20 09:35:23;;;;;;;2.10;1.35;;;17.90;93.90;;;;;;5083319;28;20024;-45
2023/05/20 09:37:55;;;;;;;2.22;2.03;;;17.90;93.80;;;;;;5084910;28;20028;-42
2023/05/20 09:40:26;;;;;;;1.65;1.50;;;18.00;93.80;;;;;;5083803;28;20031;-41
2023/05/20 09:43:03;;;;;;;2.80;1.10;;;18.00;93.60;;;;;;5082833;28;20020;-41
2023/05/20 09:45:28;;;;;;;2.33;1.60;;;18.10;93.70;;;;;;5082526;28;20071;-42
2023/05/20 09:47:55;;;;;;;1.70;1.40;;;18.10;93.30;;;;;;5083866;28;20112;-42
2023/05/20 09:50:23;;;;;;;1.95;1.38;;;18.20;93.10;;;;;;5083136;28;20097;-42
2023/05/20 09:52:50;;;;;;;2.00;1.52;;;18.10;92.70;;;;;;5084389;28;20479;-42
2023/05/20 09:55:20;;;;;;;1.45;1.30;;;18.20;92.50;;;;;;5083751;28;20048;-40
2023/05/20 09:57:46;;;;;;;2.50;1.35;;;18.10;92.60;;;;;;5084632;28;20138;-43
2023/05/20 10:00:14;;;;;;;3.33;1.60;;;18.20;92.60;;;;;;5084433;28;20487;-43
2023/05/20 10:02:45;;;;;;;3.40;2.28;;;18.20;92.20;;;;;;5083119;28;20051;-42
2023/05/20 10:05:29;;;;;;;1.60;1.20;;;18.20;92.10;;;;;;5084254;28;20032;-42
2023/05/20 10:08:22;;;;;;;1.40;1.20;;;18.20;92.10;;;;;;5083768;28;20097;-43
2023/05/20 10:10:53;;;;;;;2.28;1.25;;;18.20;92.10;;;;;;5083191;28;20111;-42
2023/05/20 10:13:39;;;;;;;1.60;1.20;;;18.20;92.10;;;;;;5083810;28;20036;-42
2023/05/20 10:16:08;;;;;;;2.67;1.10;;;18.30;92.20;;;;;;5084220;28;20650;-43
2023/05/20 10:19:01;;;;;;;2.40;1.60;;;18.30;92.20;;;;;;5081483;28;20056;-42
2023/05/20 10:21:27;;;;;;;1.42;1.20;;;18.40;92.00;;;;;;5082568;28;20151;-43
2023/05/20 10:23:52;;;;;;;1.52;1.40;;;18.40;92.00;;;;;;5082291;28;20034;-43
2023/05/20 10:26:18;;;;;;;3.40;1.50;;;18.50;92.10;;;;;;5082958;28;20517;-43
2023/05/20 10:28:45;;;;;;;2.03;1.42;;;18.60;92.10;;;;;;5082575;28;20020;-45
2023/05/20 10:31:20;;;;;;;2.20;1.52;;;18.70;92.00;;;;;;5083307;28;20028;-42
2023/05/20 10:33:46;;;;;;;3.40;1.20;;;18.70;91.50;;;;;;5084147;28;20028;-43
2023/05/20 10:36:25;;;;;;;2.55;1.30;;;18.70;91.60;;;;;;5083986;28;20028;-43
2023/05/20 10:38:55;;;;;;;3.70;1.50;;;18.80;91.80;;;;;;5083243;28;20550;-42
2023/05/20 10:41:25;;;;;;;4.63;1.40;;;18.80;91.60;;;;;;5083492;28;20036;-43
2023/05/20 10:44:05;;;;;;;2.35;1.30;;;18.80;91.10;;;;;;5083528;28;20119;-42
2023/05/20 10:46:32;;;;;;;2.35;1.45;;;18.80;91.00;;;;;;5081946;28;20060;-42
2023/05/20 10:48:58;;;;;;;1.45;1.23;;;18.80;91.10;;;;;;5082598;28;20427;-43
2023/05/20 10:51:24;;;;;;;2.03;1.20;;;18.90;91.20;;;;;;5081793;28;20107;-42
2023/05/20 10:53:54;;;;;;;1.65;1.27;;;19.00;91.10;;;;;;5081488;28;20534;-41
2023/05/20 10:56:21;;;;;;;1.20;1.08;;;19.00;91.00;;;;;;5082040;28;20075;-42
2023/05/20 10:58:47;;;;;;;1.30;1.20;;;19.10;90.80;;;;;;5071706;28;20073;-44
2023/05/20 11:01:15;;;;;;;1.83;1.17;;;19.10;90.70;;;;;;5082673;28;20036;-42
2023/05/20 11:03:42;;;;;;;1.40;1.30;;;19.20;90.80;;;;;;5080924;28;20020;-42
2023/05/20 11:06:15;;;;;;;1.50;1.20;;;19.30;90.70;;;;;;5082254;28;20432;-43
2023/05/20 11:08:45;;;;;;;2.30;1.08;;;19.30;90.60;;;;;;5080823;28;20028;-41
2023/05/20 11:11:12;;;;;;;2.42;1.25;;;19.40;90.60;;;;;;5103123;28;20218;-43
2023/05/20 11:13:41;;;;;;;1.13;1.02;;;19.40;90.80;;;;;;5081316;28;20024;-42
2023/05/20 11:16:09;;;;;;;1.60;1.23;;;19.50;90.50;;;;;;5082948;28;20032;-42
2023/05/20 11:18:35;;;;;;;2.90;1.30;;;19.50;90.40;;;;;;5081982;28;20024;-43
2023/05/20 11:21:01;;;;;;;2.00;1.08;;;19.60;90.40;;;;;;5081102;28;20116;-43
2023/05/20 11:23:30;;;;;;;1.23;1.00;;;19.70;90.40;;;;;;5081912;28;20468;-43
2023/05/20 11:25:56;;;;;;;1.63;1.20;;;19.70;90.30;;;;;;5082226;28;20036;-43
2023/05/20 11:28:25;;;;;;;1.30;1.15;;;19.80;90.30;;;;;;5081906;28;20069;-43
2023/05/20 11:30:52;;;;;;;2.25;1.00;;;19.80;90.20;;;;;;5083139;28;20035;-44
2023/05/20 11:33:18;;;;;;;1.48;1.38;;;19.80;90.10;;;;;;5081712;28;20023;-43
2023/05/20 11:35:51;;;;;;;1.60;1.20;;;19.90;90.20;;;;;;5081613;28;20078;-43
2023/05/20 11:38:17;;;;;;;1.70;1.15;;;19.90;90.10;;;;;;5082475;28;20036;-42
2023/05/20 11:40:45;;;;;;;1.23;1.13;;;20.00;89.40;;;;;;5082276;28;20562;-43
2023/05/20 11:43:12;;;;;;;1.13;1.02;;;19.90;89.10;;;;;;5082277;28;20020;-43
2023/05/20 11:45:39;;;;;;;1.42;1.00;;;19.90;89.10;;;;;;5082261;28;20163;-42
2023/05/20 11:48:05;;;;;;;1.23;1.00;;;20.10;89.20;;;;;;5083109;28;20012;-43
2023/05/20 11:50:39;;;;;;;0.93;0.90;;;20.10;89.10;;;;;;5081631;28;20028;-43
2023/05/20 11:53:09;;;;;;;2.42;1.35;;;20.40;88.50;;;;;;5083262;28;20103;-42
2023/05/20 11:55:49;;;;;;;1.15;1.05;;;20.50;87.50;;;;;;5081923;28;20472;-42
2023/05/20 11:58:17;;;;;;;1.50;1.30;;;20.60;87.20;;;;;;5081848;28;20032;-43
2023/05/20 12:00:43;;;;;;;1.20;1.08;;;20.70;86.20;;;;;;5081813;28;20817;-42
2023/05/20 12:03:08;;;;;;;1.25;1.15;;;20.90;86.20;;;;;;5080833;28;20028;-45
2023/05/20 12:05:34;;;;;;;1.38;1.13;;;21.00;86.20;;;;;;5080928;28;20480;-39
2023/05/20 12:07:59;;;;;;;1.83;1.20;;;21.10;85.90;;;;;;5082636;28;20024;-43
2023/05/20 12:10:25;;;;;;;2.72;1.02;;;21.20;85.00;;;;;;5081013;28;20028;-43
2023/05/20 12:12:50;;;;;;;1.42;1.10;;;21.30;84.90;;;;;;5081965;28;20024;-43
2023/05/20 12:15:19;;;;;;;0.88;0.80;;;21.40;84.90;;;;;;5081540;28;20984;-43
2023/05/20 12:17:47;;;;;;;1.50;0.90;;;21.50;84.60;;;;;;5075504;28;20438;-43
2023/05/20 12:20:17;;;;;;;2.00;1.42;;;21.60;84.70;;;;;;5082861;28;20093;-32
2023/05/20 12:22:44;;;;;;;1.42;1.13;;;21.60;83.40;;;;;;5082761;28;20440;-32
2023/05/20 12:25:14;;;;;;;1.58;1.10;;;21.70;83.20;;;;;;5080806;28;20515;-42
2023/05/20 12:27:41;;;;;;;2.05;1.10;;;21.70;83.00;;;;;;5081419;28;20032;-40
2023/05/20 12:30:26;;;;;;;1.30;1.00;;;21.80;82.70;;;;;;5082158;28;20024;-43
2023/05/20 12:32:58;;;;;;;1.98;0.95;;;21.90;82.70;;;;;;5082026;28;20017;-43
2023/05/20 12:35:34;;;;;;;1.73;1.23;;;21.90;81.60;;;;;;5081413;28;20024;-43
2023/05/20 12:38:00;;;;;;;1.30;1.00;;;22.00;81.40;;;;;;5081777;28;20035;-43
2023/05/20 12:40:26;;;;;;;1.20;1.08;;;22.00;80.70;;;;;;5080102;28;20020;-44
2023/05/20 12:42:51;;;;;;;1.27;1.17;;;22.00;80.00;;;;;;5082274;28;20035;-43
2023/05/20 12:45:17;;;;;;;1.50;1.40;;;22.00;80.00;;;;;;5081020;28;20052;-42
2023/05/20 12:47:43;;;;;;;2.55;1.17;;;21.90;79.60;;;;;;5082297;28;20036;-43